createdAt,value
2023-03-23T00:00:21.410Z,33.95
2023-03-23T00:00:51.423Z,33.98
2023-03-23T00:01:21.499Z,33.97
2023-03-23T00:01:51.580Z,33.92
2023-03-23T00:02:21.682Z,33.94
2023-03-23T00:02:51.768Z,33.92
2023-03-23T00:03:21.844Z,33.93
2023-03-23T00:03:51.919Z,33.89
2023-03-23T00:04:21.964Z,33.95
2023-03-23T00:04:52.034Z,33.95
2023-03-23T00:05:22.141Z,33.94
2023-03-23T00:05:52.245Z,33.95
2023-03-23T00:06:22.323Z,33.96
2023-03-23T00:06:52.398Z,34.00
2023-03-23T00:07:22.491Z,33.97
2023-03-23T00:07:52.586Z,33.98
2023-03-23T00:08:22.658Z,33.96
2023-03-23T00:08:52.696Z,33.98
2023-03-23T00:09:22.733Z,33.92
2023-03-23T00:09:52.776Z,33.93
2023-03-23T00:10:22.926Z,33.94
2023-03-23T00:10:52.871Z,33.95
2023-03-23T00:11:22.925Z,33.96
2023-03-23T00:11:52.964Z,33.96
2023-03-23T00:12:23.037Z,33.96
2023-03-23T00:12:53.062Z,33.96
2023-03-23T00:13:23.134Z,33.93
2023-03-23T00:13:53.175Z,33.99
2023-03-23T00:14:23.229Z,34.05
2023-03-23T00:14:53.267Z,34.04
2023-03-23T00:15:23.272Z,34.02
2023-03-23T00:15:53.351Z,34.06
2023-03-23T00:16:23.385Z,34.07
2023-03-23T00:16:53.428Z,34.12
2023-03-23T00:17:23.510Z,34.09
2023-03-23T00:17:53.594Z,34.14
2023-03-23T00:18:23.678Z,34.18
2023-03-23T00:18:53.763Z,34.19
2023-03-23T00:19:25.095Z,34.20
2023-03-23T00:19:53.819Z,34.27
2023-03-23T00:20:23.902Z,34.25
2023-03-23T00:20:53.991Z,34.23
2023-03-23T00:21:24.036Z,34.34
2023-03-23T00:21:54.111Z,34.32
2023-03-23T00:22:24.193Z,34.31
2023-03-23T00:22:54.234Z,34.34
2023-03-23T00:23:24.336Z,34.36
2023-03-23T00:23:54.465Z,34.39
2023-03-23T00:24:24.450Z,34.39
2023-03-23T00:24:54.470Z,34.42
2023-03-23T00:25:24.553Z,34.44
2023-03-23T00:25:54.555Z,34.41
2023-03-23T00:26:24.656Z,34.46
2023-03-23T00:26:54.744Z,34.49
2023-03-23T00:27:24.831Z,34.49
2023-03-23T00:27:54.914Z,34.50
2023-03-23T00:28:24.975Z,34.51
2023-03-23T00:28:55.062Z,34.56
2023-03-23T00:29:25.149Z,34.55
2023-03-23T00:29:55.164Z,34.57
2023-03-23T00:30:25.183Z,34.55
2023-03-23T00:30:55.158Z,34.62
2023-03-23T00:31:25.237Z,34.61
2023-03-23T00:31:55.321Z,34.56
2023-03-23T00:32:25.455Z,34.57
2023-03-23T00:32:55.471Z,34.63
2023-03-23T00:33:25.578Z,34.65
2023-03-23T00:33:55.657Z,34.65
2023-03-23T00:34:25.762Z,34.67
2023-03-23T00:34:55.839Z,34.67
2023-03-23T00:35:25.939Z,34.70
2023-03-23T00:35:56.141Z,34.68
2023-03-23T00:36:26.145Z,34.67
2023-03-23T00:36:56.216Z,34.64
2023-03-23T00:37:26.302Z,34.59
2023-03-23T00:37:56.359Z,34.59
2023-03-23T00:38:26.461Z,34.62
2023-03-23T00:38:56.514Z,34.63
2023-03-23T00:39:26.562Z,34.59
2023-03-23T00:39:56.669Z,34.59
2023-03-23T00:40:26.760Z,34.59
2023-03-23T00:40:56.794Z,34.52
2023-03-23T00:41:26.888Z,34.59
2023-03-23T00:41:56.940Z,34.55
2023-03-23T00:42:27.004Z,34.59
2023-03-23T00:42:57.067Z,34.56
2023-03-23T00:43:27.251Z,34.56
2023-03-23T00:43:57.263Z,34.52
2023-03-23T00:44:27.341Z,34.51
2023-03-23T00:44:57.462Z,34.48
2023-03-23T00:45:27.533Z,34.51
2023-03-23T00:45:57.639Z,34.50
2023-03-23T00:46:27.628Z,34.51
2023-03-23T00:46:57.721Z,34.40
2023-03-23T00:47:27.807Z,34.43
2023-03-23T00:47:57.890Z,34.41
2023-03-23T00:48:27.978Z,34.42
2023-03-23T00:48:58.076Z,34.39
2023-03-23T00:49:28.150Z,34.38
2023-03-23T00:49:58.256Z,34.36
2023-03-23T00:50:33.791Z,34.35
2023-03-23T00:50:58.425Z,34.31
2023-03-23T00:51:28.518Z,34.34
2023-03-23T00:51:58.553Z,34.31
2023-03-23T00:52:28.640Z,34.33
2023-03-23T00:52:58.747Z,34.30
2023-03-23T00:53:28.814Z,34.33
2023-03-23T00:53:58.903Z,34.33
2023-03-23T00:54:28.986Z,34.30
2023-03-23T00:54:59.005Z,34.27
2023-03-23T00:55:29.095Z,34.26
2023-03-23T00:55:59.161Z,34.25
2023-03-23T00:56:29.167Z,34.25
2023-03-23T00:56:59.249Z,34.20
2023-03-23T00:57:29.334Z,34.18
2023-03-23T00:57:59.411Z,34.21
2023-03-23T00:58:29.443Z,34.18
2023-03-23T00:58:59.502Z,34.14
2023-03-23T00:59:29.617Z,34.14
2023-03-23T00:59:59.681Z,34.14
2023-03-23T01:00:29.750Z,34.18
2023-03-23T01:00:59.831Z,34.11
2023-03-23T01:01:29.917Z,34.16
2023-03-23T01:02:00.005Z,34.16
2023-03-23T01:02:30.084Z,34.14
2023-03-23T01:03:00.172Z,34.13
2023-03-23T01:03:30.371Z,34.14
2023-03-23T01:04:00.315Z,34.16
2023-03-23T01:04:30.430Z,34.17
2023-03-23T01:05:00.400Z,34.09
2023-03-23T01:05:30.502Z,34.06
2023-03-23T01:06:00.563Z,34.06
2023-03-23T01:06:30.654Z,34.07
2023-03-23T01:07:00.707Z,34.09
2023-03-23T01:07:30.767Z,34.03
2023-03-23T01:08:00.771Z,34.06
2023-03-23T01:08:30.882Z,34.09
2023-03-23T01:09:00.920Z,34.02
2023-03-23T01:09:30.976Z,34.05
2023-03-23T01:10:01.061Z,34.05
2023-03-23T01:10:31.105Z,34.06
2023-03-23T01:11:01.250Z,34.03
2023-03-23T01:11:31.298Z,33.99
2023-03-23T01:12:01.349Z,34.02
2023-03-23T01:12:31.402Z,34.00
2023-03-23T01:13:01.432Z,34.04
2023-03-23T01:13:31.470Z,34.00
2023-03-23T01:14:01.549Z,34.00
2023-03-23T01:14:31.568Z,33.97
2023-03-23T01:15:01.603Z,33.99
2023-03-23T01:15:31.634Z,33.96
2023-03-23T01:16:02.975Z,33.98
2023-03-23T01:16:31.736Z,33.93
2023-03-23T01:17:01.746Z,33.98
2023-03-23T01:17:31.822Z,34.00
2023-03-23T01:18:01.898Z,34.00
2023-03-23T01:18:33.812Z,33.97
2023-03-23T01:19:02.076Z,33.97
2023-03-23T01:19:32.162Z,33.99
2023-03-23T01:20:02.242Z,34.04
2023-03-23T01:20:32.290Z,33.95
2023-03-23T01:21:02.318Z,33.94
2023-03-23T01:21:32.400Z,33.99
2023-03-23T01:22:02.503Z,34.02
2023-03-23T01:22:32.579Z,33.92
2023-03-23T01:23:02.655Z,33.97
2023-03-23T01:23:32.713Z,34.03
2023-03-23T01:24:02.759Z,33.98
2023-03-23T01:24:32.791Z,34.00
2023-03-23T01:25:02.868Z,33.90
2023-03-23T01:25:32.943Z,33.94
2023-03-23T01:26:03.037Z,33.91
2023-03-23T01:26:33.190Z,33.96
2023-03-23T01:27:03.183Z,33.94
2023-03-23T01:27:33.239Z,33.97
2023-03-23T01:28:03.326Z,34.02
2023-03-23T01:28:33.442Z,33.89
2023-03-23T01:29:03.440Z,33.94
2023-03-23T01:29:33.542Z,33.91
2023-03-23T01:30:03.575Z,33.99
2023-03-23T01:30:33.674Z,33.92
2023-03-23T01:31:14.552Z,33.88
2023-03-23T01:31:33.883Z,33.92
2023-03-23T01:32:03.850Z,33.97
2023-03-23T01:32:33.964Z,33.92
2023-03-23T01:33:04.043Z,33.97
2023-03-23T01:33:34.116Z,33.95
2023-03-23T01:34:04.189Z,33.98
2023-03-23T01:34:34.291Z,33.94
2023-03-23T01:35:04.343Z,34.00
2023-03-23T01:35:34.459Z,34.04
2023-03-23T01:36:04.442Z,33.95
2023-03-23T01:36:34.553Z,34.01
2023-03-23T01:37:04.630Z,34.05
2023-03-23T01:37:34.705Z,34.10
2023-03-23T01:38:04.772Z,34.15
2023-03-23T01:38:34.770Z,34.11
2023-03-23T01:39:04.853Z,34.15
2023-03-23T01:39:34.945Z,34.13
2023-03-23T01:40:05.028Z,34.19
2023-03-23T01:40:35.042Z,34.24
2023-03-23T01:41:05.090Z,34.24
2023-03-23T01:41:35.201Z,34.27
2023-03-23T01:42:05.244Z,34.28
2023-03-23T01:42:35.308Z,34.29
2023-03-23T01:43:05.399Z,34.32
2023-03-23T01:43:35.502Z,34.29
2023-03-23T01:44:05.587Z,34.30
2023-03-23T01:44:35.709Z,34.33
2023-03-23T01:45:05.781Z,34.33
2023-03-23T01:45:35.886Z,34.35
2023-03-23T01:46:05.914Z,34.37
2023-03-23T01:46:35.987Z,34.40
2023-03-23T01:47:06.105Z,34.35
2023-03-23T01:47:36.090Z,34.42
2023-03-23T01:48:06.175Z,34.42
2023-03-23T01:48:36.272Z,34.44
2023-03-23T01:49:06.344Z,34.43
2023-03-23T01:49:36.434Z,34.47
2023-03-23T01:50:06.520Z,34.50
2023-03-23T01:50:36.602Z,34.44
2023-03-23T01:51:06.708Z,34.50
2023-03-23T01:51:41.811Z,34.52
2023-03-23T01:52:06.882Z,34.54
2023-03-23T01:52:36.956Z,34.55
2023-03-23T01:53:07.064Z,34.57
2023-03-23T01:53:37.149Z,34.59
2023-03-23T01:54:07.231Z,34.63
2023-03-23T01:54:37.243Z,34.58
2023-03-23T01:55:07.326Z,34.55
2023-03-23T01:55:37.405Z,34.61
2023-03-23T01:56:07.406Z,34.57
2023-03-23T01:56:37.489Z,34.59
2023-03-23T01:57:07.581Z,34.58
2023-03-23T01:57:37.558Z,34.63
2023-03-23T01:58:07.573Z,34.66
2023-03-23T01:58:37.574Z,34.62
2023-03-23T01:59:07.603Z,34.66
2023-03-23T01:59:37.723Z,34.68
2023-03-23T02:00:07.773Z,34.58
2023-03-23T02:00:37.873Z,34.61
2023-03-23T02:01:07.946Z,34.58
2023-03-23T02:01:38.050Z,34.58
2023-03-23T02:02:08.130Z,34.54
2023-03-23T02:02:38.208Z,34.58
2023-03-23T02:03:08.300Z,34.53
2023-03-23T02:03:38.381Z,34.54
2023-03-23T02:04:08.449Z,34.49
2023-03-23T02:04:38.532Z,34.49
2023-03-23T02:05:08.632Z,34.43
2023-03-23T02:05:38.748Z,34.42
2023-03-23T02:06:08.793Z,34.48
2023-03-23T02:06:38.888Z,34.40
2023-03-23T02:07:08.941Z,34.40
2023-03-23T02:07:38.999Z,34.41
2023-03-23T02:08:09.033Z,34.39
2023-03-23T02:08:39.091Z,34.37
2023-03-23T02:09:10.351Z,34.39
2023-03-23T02:09:39.211Z,34.37
2023-03-23T02:10:09.268Z,34.35
2023-03-23T02:10:39.297Z,34.35
2023-03-23T02:11:09.298Z,34.31
2023-03-23T02:11:39.330Z,34.33
2023-03-23T02:12:09.380Z,34.29
2023-03-23T02:12:39.488Z,34.28
2023-03-23T02:13:11.706Z,34.32
2023-03-23T02:13:39.775Z,34.27
2023-03-23T02:14:09.685Z,34.28
2023-03-23T02:14:39.750Z,34.22
2023-03-23T02:15:09.767Z,34.25
2023-03-23T02:15:39.960Z,34.25
2023-03-23T02:16:09.895Z,34.21
2023-03-23T02:16:39.968Z,34.23
2023-03-23T02:17:10.009Z,34.21
2023-03-23T02:17:40.047Z,34.19
2023-03-23T02:18:10.137Z,34.19
2023-03-23T02:18:40.267Z,34.18
2023-03-23T02:19:10.243Z,34.18
2023-03-23T02:19:40.316Z,34.19
2023-03-23T02:20:13.326Z,34.15
2023-03-23T02:20:40.465Z,34.13
2023-03-23T02:21:10.555Z,34.19
2023-03-23T02:21:40.597Z,34.18
2023-03-23T02:22:10.652Z,34.05
2023-03-23T02:22:40.728Z,34.01
2023-03-23T02:23:10.766Z,34.08
2023-03-23T02:23:40.816Z,34.08
2023-03-23T02:24:10.896Z,34.04
2023-03-23T02:24:40.975Z,34.08
2023-03-23T02:25:11.093Z,34.01
2023-03-23T02:25:41.299Z,34.11
2023-03-23T02:26:11.109Z,34.10
2023-03-23T02:26:41.186Z,34.04
2023-03-23T02:27:11.221Z,33.98
2023-03-23T02:27:41.389Z,33.97
2023-03-23T02:28:11.418Z,33.95
2023-03-23T02:28:41.486Z,33.97
2023-03-23T02:29:11.516Z,34.00
2023-03-23T02:29:42.760Z,34.01
2023-03-23T02:30:11.721Z,34.01
2023-03-23T02:30:41.806Z,33.98
2023-03-23T02:31:11.849Z,33.98
2023-03-23T02:31:41.999Z,33.97
2023-03-23T02:32:11.969Z,34.01
2023-03-23T02:32:42.086Z,34.03
2023-03-23T02:33:12.162Z,33.98
2023-03-23T02:33:42.247Z,34.03
2023-03-23T02:34:12.330Z,33.96
2023-03-23T02:34:42.431Z,34.07
2023-03-23T02:35:12.541Z,33.98
2023-03-23T02:35:42.943Z,33.94
2023-03-23T02:36:12.628Z,34.00
2023-03-23T02:36:42.726Z,33.97
2023-03-23T02:37:12.731Z,34.01
2023-03-23T02:37:42.825Z,33.97
2023-03-23T02:38:12.876Z,33.95
2023-03-23T02:38:42.968Z,33.95
2023-03-23T02:39:13.056Z,33.98
2023-03-23T02:39:43.146Z,33.98
2023-03-23T02:40:13.228Z,33.95
2023-03-23T02:40:43.322Z,33.98
2023-03-23T02:41:13.406Z,33.93
2023-03-23T02:41:43.519Z,34.03
2023-03-23T02:42:15.475Z,33.98
2023-03-23T02:42:43.712Z,33.98
2023-03-23T02:43:13.694Z,33.95
2023-03-23T02:43:43.795Z,33.95
2023-03-23T02:44:13.885Z,34.00
2023-03-23T02:44:44.039Z,33.90
2023-03-23T02:45:13.978Z,33.95
2023-03-23T02:45:44.071Z,33.93
2023-03-23T02:46:14.146Z,33.95
2023-03-23T02:46:44.227Z,33.93
2023-03-23T02:47:14.295Z,33.92
2023-03-23T02:47:44.384Z,33.94
2023-03-23T02:48:14.417Z,33.89
2023-03-23T02:48:44.527Z,33.95
2023-03-23T02:49:14.498Z,33.86
2023-03-23T02:49:44.583Z,33.95
2023-03-23T02:50:14.689Z,33.93
2023-03-23T02:50:44.766Z,33.94
2023-03-23T02:51:14.904Z,33.84
2023-03-23T02:51:44.860Z,33.87
2023-03-23T02:52:14.928Z,33.88
2023-03-23T02:52:45.013Z,33.87
2023-03-23T02:53:15.099Z,33.88
2023-03-23T02:53:45.232Z,33.83
2023-03-23T02:54:15.191Z,33.86
2023-03-23T02:54:45.231Z,33.92
2023-03-23T02:55:15.337Z,33.94
2023-03-23T02:55:45.305Z,33.92
2023-03-23T02:56:15.304Z,33.99
2023-03-23T02:56:45.393Z,34.02
2023-03-23T02:57:15.493Z,33.99
2023-03-23T02:57:45.621Z,34.04
2023-03-23T02:58:15.654Z,34.11
2023-03-23T02:58:45.739Z,34.13
2023-03-23T02:59:15.838Z,34.14
2023-03-23T02:59:45.961Z,34.16
2023-03-23T03:00:16.061Z,34.18
2023-03-23T03:00:46.076Z,34.19
2023-03-23T03:01:16.162Z,34.23
2023-03-23T03:01:46.173Z,34.24
2023-03-23T03:02:16.238Z,34.24
2023-03-23T03:02:46.375Z,34.30
2023-03-23T03:03:16.407Z,34.31
2023-03-23T03:03:46.516Z,34.30
2023-03-23T03:04:16.548Z,34.32
2023-03-23T03:04:46.624Z,34.36
2023-03-23T03:05:16.705Z,34.42
2023-03-23T03:05:46.770Z,34.36
2023-03-23T03:06:16.776Z,34.39
2023-03-23T03:06:46.780Z,34.36
2023-03-23T03:07:16.863Z,34.52
2023-03-23T03:07:46.925Z,34.46
2023-03-23T03:08:17.018Z,34.46
2023-03-23T03:08:47.090Z,34.43
2023-03-23T03:09:17.166Z,34.44
2023-03-23T03:09:47.207Z,34.42
2023-03-23T03:10:17.554Z,34.36
2023-03-23T03:10:47.416Z,34.41
2023-03-23T03:11:17.433Z,34.51
2023-03-23T03:11:47.474Z,34.48
2023-03-23T03:12:17.470Z,34.51
2023-03-23T03:12:47.544Z,34.52
2023-03-23T03:13:17.589Z,34.59
2023-03-23T03:13:47.734Z,34.60
2023-03-23T03:14:17.786Z,34.65
2023-03-23T03:14:47.913Z,34.63
2023-03-23T03:15:17.992Z,34.68
2023-03-23T03:15:48.038Z,34.64
2023-03-23T03:16:18.108Z,34.64
2023-03-23T03:16:48.093Z,34.66
2023-03-23T03:17:18.141Z,34.68
2023-03-23T03:17:48.226Z,34.65
2023-03-23T03:18:18.442Z,34.65
2023-03-23T03:18:48.430Z,34.64
2023-03-23T03:19:18.508Z,34.60
2023-03-23T03:19:48.561Z,34.66
2023-03-23T03:20:18.649Z,34.67
2023-03-23T03:20:48.761Z,34.62
2023-03-23T03:21:18.795Z,34.63
2023-03-23T03:21:48.821Z,34.58
2023-03-23T03:22:18.867Z,34.56
2023-03-23T03:22:48.972Z,34.55
2023-03-23T03:23:19.002Z,34.57
2023-03-23T03:23:49.110Z,34.57
2023-03-23T03:24:19.188Z,34.57
2023-03-23T03:24:49.286Z,34.58
2023-03-23T03:25:19.325Z,34.63
2023-03-23T03:25:49.340Z,34.57
2023-03-23T03:26:19.418Z,34.55
2023-03-23T03:26:49.528Z,34.52
2023-03-23T03:27:19.642Z,34.54
2023-03-23T03:27:49.651Z,34.53
2023-03-23T03:28:19.791Z,34.54
2023-03-23T03:28:49.788Z,34.46
2023-03-23T03:29:19.869Z,34.45
2023-03-23T03:29:49.911Z,34.42
2023-03-23T03:30:20.029Z,34.42
2023-03-23T03:30:50.012Z,34.41
2023-03-23T03:31:20.118Z,34.39
2023-03-23T03:31:50.210Z,34.43
2023-03-23T03:32:20.330Z,34.42
2023-03-23T03:32:50.384Z,34.42
2023-03-23T03:33:20.436Z,34.41
2023-03-23T03:33:50.407Z,34.42
2023-03-23T03:34:20.494Z,34.41
2023-03-23T03:34:50.500Z,34.42
2023-03-23T03:35:20.624Z,34.38
2023-03-23T03:35:50.724Z,34.36
2023-03-23T03:36:20.703Z,34.37
2023-03-23T03:36:50.722Z,34.38
2023-03-23T03:37:20.816Z,34.34
2023-03-23T03:37:50.904Z,34.36
2023-03-23T03:38:21.006Z,34.33
2023-03-23T03:38:50.973Z,34.29
2023-03-23T03:39:21.053Z,34.33
2023-03-23T03:39:51.149Z,34.26
2023-03-23T03:40:21.181Z,34.32
2023-03-23T03:40:51.185Z,34.29
2023-03-23T03:41:21.270Z,34.29
2023-03-23T03:41:51.364Z,34.32
2023-03-23T03:42:21.456Z,34.33
2023-03-23T03:42:51.531Z,34.23
2023-03-23T03:43:21.544Z,34.26
2023-03-23T03:43:51.636Z,34.25
2023-03-23T03:44:21.609Z,34.22
2023-03-23T03:44:51.695Z,34.24
2023-03-23T03:45:21.806Z,34.14
2023-03-23T03:45:51.878Z,34.21
2023-03-23T03:46:21.909Z,34.21
2023-03-23T03:46:51.990Z,34.21
2023-03-23T03:47:22.134Z,34.16
2023-03-23T03:47:52.079Z,34.20
2023-03-23T03:48:22.184Z,34.14
2023-03-23T03:48:52.280Z,34.11
2023-03-23T03:49:22.393Z,34.13
2023-03-23T03:49:52.356Z,34.12
2023-03-23T03:50:22.457Z,34.12
2023-03-23T03:50:52.534Z,34.13
2023-03-23T03:51:22.633Z,34.14
2023-03-23T03:51:52.721Z,34.06
2023-03-23T03:52:22.805Z,34.12
2023-03-23T03:52:52.890Z,34.08
2023-03-23T03:53:23.012Z,34.08
2023-03-23T03:53:53.082Z,34.08
2023-03-23T03:54:23.161Z,34.06
2023-03-23T03:54:53.239Z,34.12
2023-03-23T03:55:23.336Z,34.12
2023-03-23T03:55:53.338Z,34.10
2023-03-23T03:56:23.397Z,34.08
2023-03-23T03:56:53.519Z,34.09
2023-03-23T03:57:23.549Z,34.09
2023-03-23T03:57:53.540Z,34.06
2023-03-23T03:58:23.639Z,34.07
2023-03-23T03:58:54.109Z,34.07
2023-03-23T03:59:23.745Z,34.08
2023-03-23T03:59:53.736Z,34.06
2023-03-23T04:00:23.867Z,34.02
2023-03-23T04:00:53.968Z,34.05
2023-03-23T04:01:23.960Z,34.05
2023-03-23T04:01:54.052Z,34.01
2023-03-23T04:02:24.106Z,34.01
2023-03-23T04:02:54.187Z,33.94
2023-03-23T04:03:24.230Z,33.98
2023-03-23T04:03:54.249Z,33.94
2023-03-23T04:04:24.311Z,33.95
2023-03-23T04:04:54.418Z,33.90
2023-03-23T04:05:24.507Z,33.93
2023-03-23T04:05:58.374Z,33.96
2023-03-23T04:06:24.609Z,33.98
2023-03-23T04:06:54.649Z,33.96
2023-03-23T04:07:24.750Z,33.95
2023-03-23T04:07:54.804Z,33.96
2023-03-23T04:08:24.842Z,33.90
2023-03-23T04:08:54.967Z,33.92
2023-03-23T04:09:24.932Z,33.98
2023-03-23T04:09:54.964Z,33.94
2023-03-23T04:10:32.732Z,34.01
2023-03-23T04:10:55.037Z,33.98
2023-03-23T04:11:32.531Z,33.99
2023-03-23T04:11:55.104Z,34.02
2023-03-23T04:12:25.147Z,34.00
2023-03-23T04:12:55.185Z,34.00
2023-03-23T04:13:25.216Z,34.09
2023-03-23T04:13:55.262Z,34.09
2023-03-23T04:14:25.366Z,34.11
2023-03-23T04:14:55.395Z,34.08
2023-03-23T04:15:25.448Z,34.09
2023-03-23T04:16:07.124Z,34.09
2023-03-23T04:16:25.533Z,34.16
2023-03-23T04:16:55.497Z,34.15
2023-03-23T04:17:25.552Z,34.23
2023-03-23T04:17:55.625Z,34.26
2023-03-23T04:18:25.659Z,34.20
2023-03-23T04:18:55.658Z,34.24
2023-03-23T04:19:25.766Z,34.24
2023-03-23T04:19:55.849Z,34.21
2023-03-23T04:20:32.035Z,34.24
2023-03-23T04:20:55.990Z,34.23
2023-03-23T04:21:26.077Z,34.24
2023-03-23T04:21:56.168Z,34.24
2023-03-23T04:22:26.251Z,34.23
2023-03-23T04:22:56.348Z,34.21
2023-03-23T04:23:26.406Z,34.21
2023-03-23T04:23:56.449Z,34.21
2023-03-23T04:24:56.368Z,34.20
2023-03-23T04:24:57.048Z,34.25
2023-03-23T04:25:26.633Z,34.21
2023-03-23T04:25:56.734Z,34.23
2023-03-23T04:26:26.825Z,34.21
2023-03-23T04:26:56.912Z,34.21
2023-03-23T04:27:26.991Z,34.21
2023-03-23T04:27:57.918Z,34.19
2023-03-23T04:28:27.009Z,34.17
2023-03-23T04:28:57.180Z,34.21
2023-03-23T04:29:27.089Z,34.24
2023-03-23T04:29:57.186Z,34.20
2023-03-23T04:30:27.202Z,34.17
2023-03-23T04:30:57.195Z,34.20
2023-03-23T04:31:27.352Z,34.23
2023-03-23T04:31:57.363Z,34.19
2023-03-23T04:32:27.474Z,34.18
2023-03-23T04:32:57.547Z,34.18
2023-03-23T04:33:55.694Z,34.16
2023-03-23T04:34:00.608Z,34.16
2023-03-23T04:34:27.783Z,34.20
2023-03-23T04:34:57.895Z,34.21
2023-03-23T04:35:27.927Z,34.14
2023-03-23T04:35:58.041Z,34.20
2023-03-23T04:36:55.973Z,34.20
2023-03-23T04:36:58.143Z,34.23
2023-03-23T04:37:28.234Z,34.18
2023-03-23T04:37:58.383Z,34.10
2023-03-23T04:38:28.430Z,34.11
2023-03-23T04:38:58.414Z,34.09
2023-03-23T04:39:28.479Z,34.10
2023-03-23T04:39:58.443Z,34.09
2023-03-23T04:40:28.541Z,34.10
2023-03-23T04:40:58.690Z,34.00
2023-03-23T04:41:28.730Z,34.04
2023-03-23T04:41:58.785Z,34.08
2023-03-23T04:42:28.883Z,34.03
2023-03-23T04:42:59.023Z,34.03
2023-03-23T04:43:28.994Z,34.01
2023-03-23T04:43:59.131Z,34.02
2023-03-23T04:44:29.193Z,33.97
2023-03-23T04:44:59.159Z,34.05
2023-03-23T04:45:29.319Z,33.94
2023-03-23T04:45:59.318Z,34.00
2023-03-23T04:46:29.289Z,33.95
2023-03-23T04:46:59.373Z,33.94
2023-03-23T04:47:29.498Z,33.97
2023-03-23T04:47:59.634Z,34.00
2023-03-23T04:48:29.569Z,33.95
2023-03-23T04:48:59.818Z,33.95
2023-03-23T04:49:29.763Z,33.94
2023-03-23T04:49:59.877Z,33.99
2023-03-23T04:50:29.907Z,33.94
2023-03-23T04:50:59.982Z,33.96
2023-03-23T04:51:30.129Z,33.94
2023-03-23T04:52:00.170Z,33.94
2023-03-23T04:52:30.304Z,33.91
2023-03-23T04:53:00.299Z,33.88
2023-03-23T04:53:30.426Z,33.91
2023-03-23T04:54:00.476Z,33.87
2023-03-23T04:54:30.465Z,33.94
2023-03-23T04:55:00.636Z,33.94
2023-03-23T04:55:30.610Z,33.86
2023-03-23T04:56:00.724Z,33.91
2023-03-23T04:56:30.695Z,33.88
2023-03-23T04:57:00.817Z,33.91
2023-03-23T04:57:30.836Z,33.90
2023-03-23T04:58:00.948Z,33.88
2023-03-23T04:58:31.395Z,33.89
2023-03-23T04:59:00.975Z,33.88
2023-03-23T04:59:31.131Z,33.87
2023-03-23T05:00:01.072Z,33.90
2023-03-23T05:00:31.223Z,33.91
2023-03-23T05:01:01.253Z,33.88
2023-03-23T05:01:31.217Z,33.90
2023-03-23T05:02:14.569Z,33.90
2023-03-23T05:02:31.365Z,33.91
2023-03-23T05:03:01.412Z,33.91
2023-03-23T05:03:31.357Z,33.94
2023-03-23T05:04:01.691Z,33.97
2023-03-23T05:04:31.595Z,34.02
2023-03-23T05:05:01.601Z,34.04
2023-03-23T05:05:31.715Z,34.08
2023-03-23T05:06:01.794Z,34.08
2023-03-23T05:06:31.926Z,34.09
2023-03-23T05:07:01.883Z,34.08
2023-03-23T05:07:31.953Z,34.11
2023-03-23T05:08:02.006Z,34.19
2023-03-23T05:08:32.063Z,34.28
2023-03-23T05:09:02.102Z,34.43
2023-03-23T05:09:32.157Z,34.43
2023-03-23T05:10:02.196Z,34.31
2023-03-23T05:10:32.254Z,34.29
2023-03-23T05:11:02.282Z,34.18
2023-03-23T05:11:32.321Z,34.22
2023-03-23T05:12:02.360Z,34.37
2023-03-23T05:12:32.531Z,34.27
2023-03-23T05:13:02.417Z,34.25
2023-03-23T05:13:32.522Z,34.33
2023-03-23T05:14:02.641Z,34.30
2023-03-23T05:14:32.788Z,34.43
2023-03-23T05:15:02.710Z,34.53
2023-03-23T05:15:32.903Z,34.66
2023-03-23T05:16:02.854Z,34.71
2023-03-23T05:16:32.883Z,34.74
2023-03-23T05:17:02.927Z,34.88
2023-03-23T05:17:32.989Z,34.95
2023-03-23T05:18:03.098Z,34.98
2023-03-23T05:18:33.165Z,35.04
2023-03-23T05:19:03.242Z,35.10
2023-03-23T05:19:33.328Z,35.22
2023-03-23T05:20:03.426Z,35.22
2023-03-23T05:20:33.563Z,35.20
2023-03-23T05:21:03.547Z,35.23
2023-03-23T05:21:33.632Z,35.29
2023-03-23T05:22:03.720Z,35.26
2023-03-23T05:22:33.811Z,35.27
2023-03-23T05:23:03.926Z,35.24
2023-03-23T05:23:34.052Z,35.30
2023-03-23T05:24:04.031Z,35.30
2023-03-23T05:24:34.114Z,35.30
2023-03-23T05:25:04.204Z,35.29
2023-03-23T05:25:34.279Z,35.30
2023-03-23T05:26:04.390Z,35.30
2023-03-23T05:26:34.464Z,35.30
2023-03-23T05:27:04.578Z,35.33
2023-03-23T05:27:34.649Z,35.34
2023-03-23T05:28:04.751Z,35.33
2023-03-23T05:28:34.844Z,35.40
2023-03-23T05:29:04.960Z,35.42
2023-03-23T05:29:35.028Z,35.45
2023-03-23T05:30:05.116Z,35.49
2023-03-23T05:30:35.209Z,35.48
2023-03-23T05:31:05.336Z,35.48
2023-03-23T05:31:35.401Z,35.50
2023-03-23T05:32:05.471Z,35.52
2023-03-23T05:32:35.557Z,35.53
2023-03-23T05:33:05.657Z,35.48
2023-03-23T05:33:35.777Z,35.57
2023-03-23T05:34:05.835Z,35.56
2023-03-23T05:34:35.938Z,35.56
2023-03-23T05:35:06.045Z,35.66
2023-03-23T05:35:36.053Z,35.64
2023-03-23T05:36:06.027Z,35.65
2023-03-23T05:36:36.115Z,35.63
2023-03-23T05:37:11.075Z,35.75
2023-03-23T05:37:36.284Z,35.85
2023-03-23T05:38:06.378Z,35.84
2023-03-23T05:38:36.509Z,35.75
2023-03-23T05:39:06.489Z,35.81
2023-03-23T05:39:36.586Z,35.80
2023-03-23T05:40:06.702Z,35.79
2023-03-23T05:40:36.782Z,35.82
2023-03-23T05:41:06.863Z,35.82
2023-03-23T05:41:36.940Z,35.79
2023-03-23T05:42:06.961Z,35.82
2023-03-23T05:42:37.060Z,35.74
2023-03-23T05:43:07.172Z,35.82
2023-03-23T05:43:37.228Z,35.81
2023-03-23T05:44:07.320Z,35.75
2023-03-23T05:44:37.447Z,35.77
2023-03-23T05:45:07.410Z,35.81
2023-03-23T05:45:37.499Z,35.77
2023-03-23T05:46:07.580Z,35.77
2023-03-23T05:46:37.660Z,35.71
2023-03-23T05:47:07.746Z,35.77
2023-03-23T05:47:37.833Z,35.80
2023-03-23T05:48:07.909Z,35.83
2023-03-23T05:48:38.035Z,35.84
2023-03-23T05:49:08.066Z,35.70
2023-03-23T05:49:38.025Z,35.57
2023-03-23T05:50:08.115Z,35.48
2023-03-23T05:50:38.194Z,35.46
2023-03-23T05:51:08.300Z,35.33
2023-03-23T05:51:38.373Z,35.36
2023-03-23T05:52:08.456Z,35.34
2023-03-23T05:52:38.582Z,35.17
2023-03-23T05:53:08.559Z,35.00
2023-03-23T05:53:38.663Z,35.05
2023-03-23T05:54:08.815Z,35.18
2023-03-23T05:54:38.759Z,35.03
2023-03-23T05:55:08.845Z,35.24
2023-03-23T05:55:39.010Z,35.28
2023-03-23T05:56:08.950Z,35.33
2023-03-23T05:56:39.033Z,35.20
2023-03-23T05:57:09.118Z,35.49
2023-03-23T05:57:39.233Z,35.67
2023-03-23T05:58:09.206Z,35.63
2023-03-23T05:58:39.313Z,35.54
2023-03-23T05:59:09.330Z,35.93
2023-03-23T05:59:39.452Z,36.09
2023-03-23T06:00:09.465Z,35.95
2023-03-23T06:00:39.506Z,36.22
2023-03-23T06:01:09.605Z,36.01
2023-03-23T06:01:39.624Z,36.15
2023-03-23T06:02:09.619Z,36.14
2023-03-23T06:02:39.677Z,36.27
2023-03-23T06:03:09.716Z,36.24
2023-03-23T06:03:39.782Z,36.02
2023-03-23T06:04:09.781Z,36.63
2023-03-23T06:04:39.874Z,36.16
2023-03-23T06:05:09.968Z,36.03
2023-03-23T06:05:40.232Z,36.13
2023-03-23T06:06:10.147Z,35.92
2023-03-23T06:06:40.226Z,36.18
2023-03-23T06:07:10.368Z,36.72
2023-03-23T06:07:40.335Z,36.50
2023-03-23T06:08:10.488Z,36.71
2023-03-23T06:08:40.463Z,36.37
2023-03-23T06:09:10.472Z,36.47
2023-03-23T06:09:40.433Z,36.51
2023-03-23T06:10:10.525Z,36.35
2023-03-23T06:10:40.612Z,36.50
2023-03-23T06:11:10.684Z,36.57
2023-03-23T06:11:40.771Z,36.52
2023-03-23T06:12:10.862Z,36.07
2023-03-23T06:12:40.946Z,36.66
2023-03-23T06:13:11.104Z,36.47
2023-03-23T06:13:41.075Z,36.77
2023-03-23T06:14:12.289Z,37.05
2023-03-23T06:14:41.239Z,37.21
2023-03-23T06:15:11.343Z,37.22
2023-03-23T06:15:41.620Z,37.28
2023-03-23T06:16:11.607Z,37.42
2023-03-23T06:16:41.561Z,37.53
2023-03-23T06:17:11.659Z,37.56
2023-03-23T06:17:41.663Z,37.68
2023-03-23T06:18:11.775Z,37.54
2023-03-23T06:18:41.789Z,37.63
2023-03-23T06:19:11.806Z,37.71
2023-03-23T06:19:41.844Z,37.61
2023-03-23T06:20:11.890Z,37.76
2023-03-23T06:20:41.958Z,37.68
2023-03-23T06:21:11.993Z,37.88
2023-03-23T06:21:41.906Z,37.95
2023-03-23T06:22:11.909Z,38.07
2023-03-23T06:22:41.937Z,38.00
2023-03-23T06:23:11.941Z,38.05
2023-03-23T06:23:41.952Z,37.96
2023-03-23T06:24:11.978Z,38.01
2023-03-23T06:24:42.047Z,38.10
2023-03-23T06:25:12.067Z,38.14
2023-03-23T06:25:42.325Z,38.11
2023-03-23T06:26:12.064Z,38.09
2023-03-23T06:26:42.071Z,38.18
2023-03-23T06:27:13.170Z,38.23